Time;durP1;ratioP1;P1;durP2;ratioP2;P2;SDS_P1;SDS_P2;PMS_P1;PMS_P2;Temp;Humidity;BMP_temperature;BMP_pressure;BME280_temperature;BME280_humidity;BME280_pressure;Samples;Min_cycle;Max_cycle;Signal;HPM_P1;HPM_P2
2023/06/30 00:00:11;;;;;;;8.20;5.50;;;;;;;15.61;85.25;97623.47;106593;1276;22555;-74
2023/06/30 00:02:59;;;;;;;11.60;6.20;;;;;;;15.68;85.13;97625.20;106728;1276;22644;-74
2023/06/30 00:05:27;;;;;;;11.30;6.90;;;;;;;15.62;85.40;97624.44;106642;1276;24097;-76
2023/06/30 00:07:54;;;;;;;7.20;6.40;;;;;;;15.55;85.50;97620.09;106651;1276;22523;-76
2023/06/30 00:10:22;;;;;;;8.70;6.50;;;;;;;15.49;85.62;97620.67;106655;1276;22527;-75
2023/06/30 00:12:49;;;;;;;8.70;6.90;;;;;;;15.47;85.82;97617.52;106627;1276;22647;-75
2023/06/30 00:15:15;;;;;;;8.70;6.90;;;;;;;15.44;85.99;97612.51;106609;1276;22545;-76
2023/06/30 00:17:42;;;;;;;8.40;6.60;;;;;;;15.43;86.05;97612.40;106622;1276;22655;-76
2023/06/30 00:20:09;;;;;;;9.30;7.70;;;;;;;15.41;86.38;97608.70;106620;1276;22774;-75
2023/06/30 00:22:36;;;;;;;11.00;6.30;;;;;;;15.42;86.31;97608.44;106643;1276;25339;-74
2023/06/30 00:25:04;;;;;;;10.40;6.80;;;;;;;15.41;86.31;97610.51;106616;1276;25374;-74
2023/06/30 00:27:30;;;;;;;9.20;6.30;;;;;;;15.45;86.26;97604.10;106618;1276;22618;-74
2023/06/30 00:29:57;;;;;;;9.00;6.50;;;;;;;15.45;86.38;97606.55;106624;1276;22619;-74
2023/06/30 00:32:24;;;;;;;8.10;6.70;;;;;;;15.38;86.58;97604.89;106608;1276;22555;-74
2023/06/30 00:34:51;;;;;;;8.50;6.90;;;;;;;15.34;86.79;97603.05;106633;1276;22588;-75
2023/06/30 00:37:17;;;;;;;10.50;7.10;;;;;;;15.38;86.97;97600.16;106527;1276;24370;-74
2023/06/30 00:39:44;;;;;;;9.60;7.00;;;;;;;15.39;87.40;97599.89;106494;1276;25294;-75
2023/06/30 00:42:10;;;;;;;8.70;6.80;;;;;;;15.44;87.44;97597.09;106657;1276;23709;-74
2023/06/30 00:44:37;;;;;;;9.30;6.70;;;;;;;15.44;87.27;97595.92;106926;1276;22571;-75
2023/06/30 00:47:05;;;;;;;7.80;6.00;;;;;;;15.40;87.47;97593.40;106746;1276;25371;-76
2023/06/30 00:49:33;;;;;;;8.10;6.60;;;;;;;15.38;87.70;97589.59;106703;1276;25021;-75
2023/06/30 00:52:00;;;;;;;9.40;7.20;;;;;;;15.33;87.81;97584.69;106667;1276;25347;-74
2023/06/30 00:54:27;;;;;;;11.00;7.00;;;;;;;15.30;87.61;97581.86;106744;1276;22538;-74
2023/06/30 00:56:53;;;;;;;9.50;7.10;;;;;;;15.21;87.71;97581.73;106628;1276;24186;-76
2023/06/30 00:59:21;;;;;;;7.80;6.20;;;;;;;15.20;87.95;97579.25;106693;1276;24248;-75
2023/06/30 01:01:58;;;;;;;12.50;6.80;;;;;;;15.22;88.29;97577.44;106561;1276;25492;-75
2023/06/30 01:04:35;;;;;;;8.10;6.30;;;;;;;15.26;88.50;97578.11;107063;1276;24236;-75
2023/06/30 01:07:14;;;;;;;9.90;6.70;;;;;;;15.37;88.39;97572.95;106601;1276;25399;-75
2023/06/30 01:09:51;;;;;;;9.50;7.30;;;;;;;15.43;88.39;97572.25;106741;1276;24260;-75
2023/06/30 01:12:18;;;;;;;7.50;6.20;;;;;;;15.42;87.88;97570.50;106698;1276;22551;-75
2023/06/30 01:14:47;;;;;;;9.20;6.50;;;;;;;15.35;87.79;97572.99;106753;1266;22543;-75
2023/06/30 01:17:17;;;;;;;10.20;6.70;;;;;;;15.28;88.05;97569.49;106629;1276;24269;-75
2023/06/30 01:19:45;;;;;;;9.50;7.00;;;;;;;15.26;88.12;97571.65;106570;1276;22540;-74
2023/06/30 01:22:25;;;;;;;8.90;7.40;;;;;;;15.14;87.89;97565.08;106734;1276;22521;-74
2023/06/30 01:24:58;;;;;;;7.20;6.20;;;;;;;14.98;87.58;97562.13;106688;1276;22551;-75
2023/06/30 01:27:24;;;;;;;8.70;7.00;;;;;;;14.87;88.41;97560.97;106706;1276;22516;-75
2023/06/30 01:29:53;;;;;;;7.90;6.40;;;;;;;14.90;88.86;97563.93;106719;1276;23927;-74
2023/06/30 01:32:21;;;;;;;9.20;7.00;;;;;;;14.87;89.23;97559.44;106781;1276;25322;-75
2023/06/30 01:34:48;;;;;;;10.40;6.70;;;;;;;14.91;88.85;97562.27;106794;1276;22540;-74
2023/06/30 01:37:15;;;;;;;8.60;7.00;;;;;;;14.88;89.45;97556.27;106725;1276;24249;-76
2023/06/30 01:39:42;;;;;;;8.10;6.20;;;;;;;14.96;89.23;97560.27;106680;1276;25226;-77
2023/06/30 01:42:09;;;;;;;9.20;6.60;;;;;;;15.07;89.49;97558.61;106796;1276;22565;-81
2023/06/30 01:44:37;;;;;;;8.80;6.90;;;;;;;15.09;89.24;97558.94;106741;1276;22693;-73
2023/06/30 01:47:05;;;;;;;8.50;6.90;;;;;;;15.08;89.46;97561.91;106695;1276;24234;-74
2023/06/30 01:49:33;;;;;;;7.90;6.50;;;;;;;15.04;89.24;97561.08;106669;1276;22518;-74
2023/06/30 01:52:01;;;;;;;9.20;5.80;;;;;;;15.05;89.58;97564.36;106757;1276;25287;-75
2023/06/30 01:54:28;;;;;;;7.80;6.40;;;;;;;15.14;89.67;97563.84;106756;1276;25377;-75
2023/06/30 01:56:54;;;;;;;9.80;6.00;;;;;;;15.21;89.83;97565.21;106637;1276;22547;-75
2023/06/30 01:59:21;;;;;;;7.00;5.90;;;;;;;15.30;89.79;97565.36;106505;1276;24209;-75
2023/06/30 02:01:48;;;;;;;6.60;5.90;;;;;;;15.34;89.39;97565.04;106485;1276;22625;-74
2023/06/30 02:04:16;;;;;;;8.40;7.10;;;;;;;15.35;89.55;97563.44;106639;1266;22523;-75
2023/06/30 02:06:46;;;;;;;7.00;5.90;;;;;;;15.33;88.93;97563.93;106713;1276;23153;-75
2023/06/30 02:09:13;;;;;;;9.50;5.80;;;;;;;15.32;89.35;97561.87;106639;1276;22528;-74
2023/06/30 02:11:40;;;;;;;10.20;6.60;;;;;;;15.29;89.26;97558.66;106596;1276;23938;-74
2023/06/30 02:14:07;;;;;;;9.20;5.80;;;;;;;15.22;89.27;97557.75;106526;1277;22758;-75
2023/06/30 02:16:33;;;;;;;8.50;5.80;;;;;;;15.16;89.23;97557.55;106654;1276;25416;-75
2023/06/30 02:19:00;;;;;;;7.40;5.60;;;;;;;15.15;89.52;97557.45;106567;1276;24258;-75
2023/06/30 02:21:27;;;;;;;7.50;6.20;;;;;;;15.19;89.83;97562.60;106717;1276;22541;-75
2023/06/30 02:23:54;;;;;;;8.50;7.20;;;;;;;15.24;89.75;97558.95;106674;1276;24209;-76
2023/06/30 02:26:21;;;;;;;6.70;5.60;;;;;;;15.26;89.20;97557.80;106652;1276;25275;-75
2023/06/30 02:28:48;;;;;;;8.80;6.40;;;;;;;15.19;89.07;97557.64;106655;1276;26862;-75
2023/06/30 02:31:16;;;;;;;8.10;6.80;;;;;;;15.14;89.12;97554.39;106682;1277;24442;-77
2023/06/30 02:33:43;;;;;;;9.90;6.90;;;;;;;15.01;88.92;97557.41;106701;1276;22528;-76
2023/06/30 02:36:10;;;;;;;8.70;6.80;;;;;;;14.65;88.91;97557.31;106512;1257;25494;-76
2023/06/30 02:38:36;;;;;;;8.30;7.00;;;;;;;14.34;89.44;97555.64;106709;1262;24266;-77
2023/06/30 02:41:03;;;;;;;10.50;6.90;;;;;;;14.08;90.03;97556.32;106484;1276;24259;-76
2023/06/30 02:43:30;;;;;;;9.20;6.90;;;;;;;13.89;90.77;97559.02;106562;1275;25272;-76
2023/06/30 02:45:56;;;;;;;8.40;6.60;;;;;;;13.76;90.77;97560.28;106658;1277;22515;-78
2023/06/30 02:48:24;;;;;;;17.30;7.30;;;;;;;13.66;91.45;97560.11;106882;1270;22526;-76
2023/06/30 02:50:50;;;;;;;9.40;7.70;;;;;;;13.59;92.13;97555.59;106738;1270;24185;-77
2023/06/30 02:53:18;;;;;;;9.50;8.00;;;;;;;13.54;93.00;97555.84;106663;1276;22527;-77
2023/06/30 02:55:46;;;;;;;10.50;7.00;;;;;;;13.47;93.31;97555.83;106507;1265;23891;-77
2023/06/30 02:58:14;;;;;;;8.80;7.30;;;;;;;13.42;93.12;97554.38;106958;1276;22573;-76
2023/06/30 03:00:41;;;;;;;7.40;6.60;;;;;;;13.36;93.10;97554.45;106685;1256;24196;-77
2023/06/30 03:03:08;;;;;;;9.30;7.00;;;;;;;13.33;93.88;97553.48;106724;1276;22524;-76
2023/06/30 03:05:36;;;;;;;7.90;6.90;;;;;;;13.32;94.06;97554.37;106667;1276;22662;-77
2023/06/30 03:08:04;;;;;;;9.10;7.10;;;;;;;13.34;94.32;97554.59;106837;1276;24117;-76
2023/06/30 03:10:31;;;;;;;8.50;6.80;;;;;;;13.36;94.78;97557.33;106519;1272;24188;-77
2023/06/30 03:12:58;;;;;;;7.80;6.80;;;;;;;13.40;94.61;97553.84;106517;1276;24205;-77
2023/06/30 03:15:25;;;;;;;12.20;7.30;;;;;;;13.46;94.89;97551.58;106867;1270;25950;-76
2023/06/30 03:17:53;;;;;;;9.90;6.60;;;;;;;13.51;95.57;97555.77;106763;1277;22718;-77
2023/06/30 03:20:20;;;;;;;11.10;6.80;;;;;;;13.57;96.49;97555.91;106630;1277;25373;-77
2023/06/30 03:22:47;;;;;;;9.40;7.10;;;;;;;13.59;96.70;97554.67;106570;1277;22550;-77
2023/06/30 03:25:14;;;;;;;8.40;7.60;;;;;;;13.60;97.43;97550.38;106809;1277;22634;-78
2023/06/30 03:27:40;;;;;;;9.90;7.00;;;;;;;13.60;96.79;97548.84;106704;1277;24466;-78
2023/06/30 03:30:08;;;;;;;7.80;6.90;;;;;;;13.63;96.97;97545.02;106755;1276;25381;-78
2023/06/30 03:32:38;;;;;;;10.50;7.80;;;;;;;13.69;96.75;97546.46;106570;1276;22679;-78
2023/06/30 03:35:05;;;;;;;8.30;7.30;;;;;;;13.74;97.36;97542.94;106748;1276;22543;-79
2023/06/30 03:37:33;;;;;;;9.10;7.50;;;;;;;13.79;97.47;97545.60;106821;1273;22514;-78
2023/06/30 03:40:05;;;;;;;8.70;7.90;;;;;;;13.83;98.14;97545.85;106738;1276;22807;-77
2023/06/30 03:42:32;;;;;;;8.80;7.80;;;;;;;13.88;97.68;97542.78;106724;1276;22533;-78
2023/06/30 03:45:00;;;;;;;8.30;7.50;;;;;;;13.95;97.93;97541.67;106717;1276;25477;-78
2023/06/30 03:47:29;;;;;;;9.60;8.10;;;;;;;14.00;98.11;97542.27;106738;1276;23904;-78
2023/06/30 03:49:56;;;;;;;9.60;8.00;;;;;;;14.05;97.97;97538.48;106574;1276;25300;-77
2023/06/30 03:52:22;;;;;;;8.70;7.70;;;;;;;14.10;97.73;97536.95;106463;1276;22543;-77
2023/06/30 03:54:51;;;;;;;10.80;7.70;;;;;;;14.19;97.47;97537.80;106724;1276;25403;-77
2023/06/30 03:57:17;;;;;;;8.00;6.90;;;;;;;14.27;97.95;97533.18;106549;1276;22646;-78
2023/06/30 03:59:46;;;;;;;11.70;7.40;;;;;;;14.37;98.25;97529.73;106505;1276;23949;-78
2023/06/30 04:02:12;;;;;;;9.40;7.80;;;;;;;14.46;98.04;97530.44;106712;1276;22601;-78
2023/06/30 04:04:39;;;;;;;7.90;7.00;;;;;;;14.57;98.03;97527.78;106755;1276;26600;-78
2023/06/30 04:07:06;;;;;;;7.70;7.00;;;;;;;14.72;98.24;97524.13;106780;1276;22543;-77
2023/06/30 04:09:33;;;;;;;9.60;7.30;;;;;;;14.90;98.02;97527.42;106745;1276;25402;-77
2023/06/30 04:11:59;;;;;;;9.00;8.10;;;;;;;15.01;97.83;97529.13;106855;1276;22672;-76
2023/06/30 04:14:26;;;;;;;8.30;7.40;;;;;;;15.12;97.96;97532.04;106727;1273;23256;-77
2023/06/30 04:16:52;;;;;;;9.70;7.60;;;;;;;15.23;98.38;97533.41;106742;1276;22629;-77
2023/06/30 04:19:19;;;;;;;10.00;8.00;;;;;;;15.33;98.76;97536.38;106754;1276;25366;-78
2023/06/30 04:21:47;;;;;;;9.20;8.00;;;;;;;15.43;98.95;97533.21;106795;1276;22943;-78
2023/06/30 04:24:14;;;;;;;10.00;8.00;;;;;;;15.58;98.90;97531.30;106727;1276;22536;-78
2023/06/30 04:26:40;;;;;;;9.20;7.40;;;;;;;15.77;98.75;97530.73;107089;1276;22528;-78
2023/06/30 04:29:07;;;;;;;9.30;8.40;;;;;;;15.94;98.47;97531.64;106751;1276;22653;-77
2023/06/30 04:31:35;;;;;;;8.50;7.70;;;;;;;16.10;98.40;97527.91;106776;1276;24410;-78
2023/06/30 04:34:02;;;;;;;9.00;7.30;;;;;;;16.28;98.31;97529.67;106769;1276;22781;-77
2023/06/30 04:36:29;;;;;;;8.30;7.10;;;;;;;16.43;98.46;97525.76;106766;1277;24350;-77
2023/06/30 04:38:56;;;;;;;8.30;6.40;;;;;;;16.63;98.42;97525.89;106721;1276;24254;-77
2023/06/30 04:41:22;;;;;;;8.30;7.40;;;;;;;16.79;98.10;97524.80;106747;1276;22511;-78
2023/06/30 04:43:49;;;;;;;9.00;6.60;;;;;;;16.91;97.94;97521.79;106607;1276;209775;-78
2023/06/30 04:46:16;;;;;;;9.10;8.00;;;;;;;17.02;97.79;97524.14;106724;1266;22664;-78
2023/06/30 04:48:42;;;;;;;8.80;7.60;;;;;;;17.11;97.68;97521.89;106779;1270;25608;-77
2023/06/30 04:51:09;;;;;;;8.60;7.50;;;;;;;17.24;97.80;97524.41;106792;1276;25329;-78
2023/06/30 04:53:38;;;;;;;8.80;7.60;;;;;;;17.38;97.54;97521.45;106763;1276;24221;-78
2023/06/30 04:56:05;;;;;;;10.00;6.60;;;;;;;17.53;97.45;97519.17;107054;1277;22547;-77
2023/06/30 04:58:32;;;;;;;7.30;6.40;;;;;;;17.70;97.30;97520.65;107042;1276;22649;-76
2023/06/30 05:00:58;;;;;;;8.90;7.10;;;;;;;17.87;97.17;97520.99;107035;1277;24309;-77
2023/06/30 05:03:25;;;;;;;10.00;6.70;;;;;;;17.97;96.81;97519.66;106919;1276;25382;-75
2023/06/30 05:05:52;;;;;;;8.00;7.00;;;;;;;18.05;96.52;97517.95;106752;1276;26516;-77
2023/06/30 05:08:18;;;;;;;7.10;6.20;;;;;;;18.16;96.08;97516.48;106623;1276;24707;-76
2023/06/30 05:10:45;;;;;;;8.70;5.80;;;;;;;18.24;95.59;97514.22;106799;1277;25290;-76
2023/06/30 05:13:12;;;;;;;8.10;5.80;;;;;;;18.31;95.25;97516.17;106736;1276;22625;-76
2023/06/30 05:15:38;;;;;;;7.30;5.80;;;;;;;18.38;94.93;97512.79;106771;1277;24097;-76
2023/06/30 05:18:05;;;;;;;7.20;5.80;;;;;;;18.46;94.26;97517.77;106808;1276;25233;-77
2023/06/30 05:20:33;;;;;;;8.50;6.20;;;;;;;18.51;94.08;97514.06;106749;1277;24269;-76
2023/06/30 05:23:00;;;;;;;9.90;6.30;;;;;;;18.59;93.82;97513.75;106783;1276;22601;-77
2023/06/30 05:25:27;;;;;;;9.30;6.90;;;;;;;18.66;93.42;97510.91;106784;1277;25183;-77
2023/06/30 05:27:54;;;;;;;9.80;5.90;;;;;;;18.73;92.59;97512.47;106739;1277;22781;-76
2023/06/30 05:30:21;;;;;;;8.90;6.70;;;;;;;18.80;92.60;97513.80;106765;1277;22527;-76
2023/06/30 05:32:47;;;;;;;8.50;6.90;;;;;;;18.87;92.26;97512.82;106970;1277;25332;-77
2023/06/30 05:35:14;;;;;;;8.00;6.70;;;;;;;18.93;91.49;97508.39;106784;1277;23300;-77
2023/06/30 05:37:41;;;;;;;7.70;6.30;;;;;;;18.98;91.51;97508.10;106766;1274;22668;-76
2023/06/30 05:40:07;;;;;;;6.90;6.20;;;;;;;19.06;91.08;97509.80;106849;1277;25409;-76
2023/06/30 05:42:34;;;;;;;7.90;6.00;;;;;;;19.15;90.86;97509.09;106906;1276;25175;-77
2023/06/30 05:45:01;;;;;;;8.70;5.90;;;;;;;19.24;90.32;97512.45;107078;1276;22615;-76
2023/06/30 05:47:27;;;;;;;9.00;6.20;;;;;;;19.32;89.94;97508.04;107076;1276;22766;-76
2023/06/30 05:49:54;;;;;;;6.80;5.90;;;;;;;19.41;89.91;97504.61;106829;1277;24318;-78
2023/06/30 05:52:24;;;;;;;9.70;5.80;;;;;;;19.53;89.50;97506.33;107142;1277;22362;-76
2023/06/30 05:54:51;;;;;;;10.60;5.80;;;;;;;19.65;89.02;97506.55;106883;1277;25300;-76
2023/06/30 05:57:18;;;;;;;9.40;6.10;;;;;;;19.72;88.08;97508.37;106883;1277;24256;-77
2023/06/30 05:59:44;;;;;;;8.30;5.50;;;;;;;19.78;88.24;97503.63;106790;1277;25230;-75
2023/06/30 06:02:11;;;;;;;11.20;5.70;;;;;;;20.00;87.47;97505.57;106847;1277;23017;-75
2023/06/30 06:04:38;;;;;;;11.80;5.30;;;;;;;20.17;87.04;97510.32;106800;1277;25512;-77
2023/06/30 06:07:05;;;;;;;10.30;7.20;;;;;;;20.33;86.59;97513.65;106835;1277;22533;-76
2023/06/30 06:09:32;;;;;;;8.40;5.70;;;;;;;20.42;85.86;97515.33;106783;1277;24199;-76
2023/06/30 06:12:03;;;;;;;9.70;6.70;;;;;;;20.42;85.21;97512.66;106794;1277;23036;-75
2023/06/30 06:14:30;;;;;;;7.20;5.80;;;;;;;20.44;85.02;97514.64;106767;1277;24361;-76
2023/06/30 06:16:57;;;;;;;8.90;6.60;;;;;;;20.49;84.40;97517.52;106888;1276;22553;-75
2023/06/30 06:19:23;;;;;;;8.80;6.10;;;;;;;20.51;84.36;97513.17;106877;1277;24237;-78
2023/06/30 06:21:50;;;;;;;9.10;5.50;;;;;;;20.67;84.29;97515.46;106833;1277;22533;-77
2023/06/30 06:24:17;;;;;;;8.30;5.60;;;;;;;20.78;82.84;97513.95;106814;1277;22550;-77
2023/06/30 06:26:43;;;;;;;6.60;5.00;;;;;;;20.89;83.09;97511.57;106896;1277;25290;-77
2023/06/30 06:29:14;;;;;;;10.90;5.90;;;;;;;21.01;82.80;97513.56;106908;1277;22552;-80
2023/06/30 06:31:43;;;;;;;7.00;4.90;;;;;;;21.13;81.80;97515.55;106970;1277;26521;-77
2023/06/30 06:34:09;;;;;;;11.20;5.50;;;;;;;21.22;80.93;97510.21;106901;1277;25272;-77
2023/06/30 06:36:37;;;;;;;7.70;4.90;;;;;;;21.26;79.02;97514.25;106813;1276;22592;-76
2023/06/30 06:39:03;;;;;;;8.60;4.50;;;;;;;21.29;78.96;97510.99;106778;1276;22534;-76
2023/06/30 06:41:31;;;;;;;6.20;4.40;;;;;;;21.32;76.93;97509.84;106800;1276;25403;-75
2023/06/30 06:43:57;;;;;;;6.20;4.50;;;;;;;21.38;75.73;97510.63;106829;1276;23916;-77
2023/06/30 06:46:24;;;;;;;7.50;4.20;;;;;;;21.43;73.29;97514.59;107163;1276;22550;-77
2023/06/30 06:48:51;;;;;;;13.00;4.70;;;;;;;21.47;73.32;97515.31;106854;1254;24219;-76
2023/06/30 06:51:18;;;;;;;6.30;4.10;;;;;;;21.54;73.40;97519.76;106582;1278;24179;-77
2023/06/30 06:53:44;;;;;;;10.00;4.40;;;;;;;21.59;70.05;97515.25;106744;1276;22530;-76
2023/06/30 06:56:11;;;;;;;7.50;4.60;;;;;;;21.63;70.01;97514.11;106648;1276;22616;-74
2023/06/30 06:58:38;;;;;;;6.10;4.30;;;;;;;21.67;68.39;97515.93;106799;1276;22651;-75
2023/06/30 07:01:05;;;;;;;10.10;4.80;;;;;;;21.74;68.43;97513.08;106775;1277;22524;-75
2023/06/30 07:03:33;;;;;;;7.30;4.50;;;;;;;21.80;66.21;97513.98;106795;1276;23633;-76
2023/06/30 07:06:00;;;;;;;8.00;4.40;;;;;;;21.83;64.55;97515.49;107180;1276;22664;-75
2023/06/30 07:08:28;;;;;;;4.70;3.70;;;;;;;21.88;65.59;97514.35;106941;1276;22540;-74
2023/06/30 07:10:56;;;;;;;6.30;4.50;;;;;;;22.00;66.69;97513.15;106764;1276;25418;-75
2023/06/30 07:13:22;;;;;;;9.30;4.50;;;;;;;22.11;65.86;97511.19;106759;1276;24488;-76
2023/06/30 07:15:50;;;;;;;6.90;3.90;;;;;;;22.21;63.86;97509.37;106752;1276;22541;-74
2023/06/30 07:18:21;;;;;;;6.50;4.00;;;;;;;22.27;62.31;97510.11;106770;1277;22586;-73
2023/06/30 07:20:49;;;;;;;5.80;3.90;;;;;;;22.30;60.32;97505.10;106809;1277;24323;-75
2023/06/30 07:23:16;;;;;;;9.40;4.30;;;;;;;22.28;60.18;97503.30;106855;1277;24199;-75
2023/06/30 07:25:44;;;;;;;9.60;4.50;;;;;;;22.36;60.93;97501.75;107170;1277;22527;-76
2023/06/30 07:28:12;;;;;;;9.60;4.20;;;;;;;22.47;61.56;97497.02;107050;1277;23764;-75
2023/06/30 07:30:40;;;;;;;7.40;5.00;;;;;;;22.59;61.03;97493.20;106740;1277;24438;-75
2023/06/30 07:33:10;;;;;;;7.90;4.30;;;;;;;22.64;59.64;97493.69;106556;1277;22680;-74
2023/06/30 07:35:37;;;;;;;7.00;4.20;;;;;;;22.67;60.15;97494.01;106800;1277;25319;-74
2023/06/30 07:38:04;;;;;;;6.80;4.50;;;;;;;22.71;58.86;97502.18;106807;1277;25644;-74
2023/06/30 07:40:30;;;;;;;6.60;4.50;;;;;;;22.70;57.26;97497.55;106771;1277;22618;-74
2023/06/30 07:43:17;;;;;;;7.60;4.70;;;;;;;22.71;58.00;97495.73;106810;1266;24327;-75
2023/06/30 07:45:43;;;;;;;6.10;4.40;;;;;;;22.77;57.42;97497.89;107041;1276;24431;-74
2023/06/30 07:48:11;;;;;;;7.80;4.70;;;;;;;22.76;56.60;97495.61;107045;1276;25194;-74
2023/06/30 07:50:37;;;;;;;11.10;5.00;;;;;;;22.77;56.73;97489.73;106782;1276;25337;-76
2023/06/30 07:53:08;;;;;;;9.20;4.90;;;;;;;22.81;58.14;97490.21;107039;1277;24446;-74
2023/06/30 07:55:34;;;;;;;9.30;5.20;;;;;;;22.96;58.07;97482.23;106760;1276;25437;-75
2023/06/30 07:58:01;;;;;;;6.00;4.30;;;;;;;23.08;57.62;97481.55;106789;1276;26647;-76
2023/06/30 08:00:29;;;;;;;8.50;4.80;;;;;;;23.22;57.41;97478.18;107022;1277;22546;-75
2023/06/30 08:02:55;;;;;;;5.80;4.40;;;;;;;23.36;57.04;97473.31;106814;1276;24252;-74
2023/06/30 08:05:22;;;;;;;7.10;4.60;;;;;;;23.48;56.22;97476.21;106810;1277;25338;-76
2023/06/30 08:07:49;;;;;;;7.60;4.50;;;;;;;23.59;55.44;97476.90;106772;1276;22649;-75
2023/06/30 08:10:18;;;;;;;5.90;4.00;;;;;;;23.68;54.70;97473.27;107059;1277;24252;-75
2023/06/30 08:12:45;;;;;;;7.30;4.10;;;;;;;23.75;53.68;97471.64;107090;1277;22615;-74
2023/06/30 08:15:12;;;;;;;10.00;4.40;;;;;;;23.80;53.70;97473.68;106820;1277;22517;-76
2023/06/30 08:17:38;;;;;;;8.00;4.00;;;;;;;23.88;53.97;97472.56;107063;1276;22791;-76
2023/06/30 08:20:23;;;;;;;10.60;3.70;;;;;;;24.04;54.45;97467.16;107077;1276;22547;-75
2023/06/30 08:22:50;;;;;;;6.80;3.80;;;;;;;24.19;54.29;97463.17;107142;1276;25294;-75
2023/06/30 08:25:22;;;;;;;9.80;4.20;;;;;;;24.42;52.78;97463.25;107035;1277;22625;-75
2023/06/30 08:27:49;;;;;;;8.10;3.40;;;;;;;24.49;52.50;97466.92;107147;1276;25484;-76
2023/06/30 08:30:15;;;;;;;7.70;3.70;;;;;;;24.61;53.07;97467.41;106839;1276;22610;-75
2023/06/30 08:32:43;;;;;;;7.10;3.90;;;;;;;24.67;50.08;97468.39;106806;1276;25485;-76
2023/06/30 08:35:10;;;;;;;5.80;3.20;;;;;;;24.72;50.18;97473.02;106810;1277;22555;-75
2023/06/30 08:37:37;;;;;;;6.80;3.40;;;;;;;24.74;49.69;97471.89;107439;1277;25410;-74
2023/06/30 08:40:05;;;;;;;7.80;3.40;;;;;;;24.75;49.09;97462.91;106689;1277;25364;-76
2023/06/30 08:42:35;;;;;;;8.20;3.40;;;;;;;24.78;48.85;97461.55;107215;1277;22500;-75
2023/06/30 08:45:03;;;;;;;9.80;3.80;;;;;;;24.86;49.91;97457.97;107006;1277;22534;-75
2023/06/30 08:47:32;;;;;;;6.20;3.30;;;;;;;25.03;49.59;97456.19;106869;1277;24400;-76
2023/06/30 08:49:59;;;;;;;6.10;3.10;;;;;;;25.12;49.39;97455.10;107205;1277;22528;-75
2023/06/30 08:52:26;;;;;;;8.10;2.90;;;;;;;25.19;48.22;97452.86;106829;1277;22546;-76
2023/06/30 08:54:54;;;;;;;6.20;3.20;;;;;;;25.28;48.70;97450.59;107152;1277;22579;-76
2023/06/30 08:57:21;;;;;;;5.20;2.90;;;;;;;25.48;48.12;97449.53;106651;1277;23934;-77
2023/06/30 08:59:48;;;;;;;5.10;2.80;;;;;;;25.50;46.92;97451.48;106878;1277;22537;-75
2023/06/30 09:02:14;;;;;;;10.20;4.50;;;;;;;25.37;46.68;97447.42;106808;1277;26757;-76
2023/06/30 09:04:42;;;;;;;6.40;2.90;;;;;;;25.32;46.98;97441.39;107223;1277;25390;-74
2023/06/30 09:07:22;;;;;;;5.90;3.00;;;;;;;25.36;46.66;97437.98;106888;1277;22547;-75
2023/06/30 09:10:01;;;;;;;7.80;3.00;;;;;;;25.44;46.77;97435.23;106843;1277;24298;-75
2023/06/30 09:12:28;;;;;;;4.20;2.90;;;;;;;25.50;46.27;97436.13;106865;1277;22534;-75
2023/06/30 09:14:59;;;;;;;5.90;2.90;;;;;;;25.50;46.36;97437.93;106782;1277;22545;-75
2023/06/30 09:17:28;;;;;;;5.20;2.90;;;;;;;25.54;46.61;97436.63;106613;1277;25484;-75
2023/06/30 09:19:54;;;;;;;5.90;2.90;;;;;;;25.62;45.81;97436.95;106832;1277;25363;-75
2023/06/30 09:22:21;;;;;;;4.30;2.50;;;;;;;25.59;44.32;97438.48;106819;1277;24233;-74
2023/06/30 09:25:28;;;;;;;30.10;3.00;;;;;;;25.47;44.53;97439.15;106795;1277;25325;-75
2023/06/30 09:27:55;;;;;;;6.20;2.50;;;;;;;25.45;44.27;97438.70;106520;1277;22654;-75
2023/06/30 09:30:35;;;;;;;8.60;3.00;;;;;;;25.49;44.72;97442.98;106762;1276;25363;-74
2023/06/30 09:33:02;;;;;;;7.00;2.70;;;;;;;25.61;45.97;97441.68;106802;1276;22524;-74
2023/06/30 09:35:37;;;;;;;5.10;2.90;;;;;;;25.82;45.53;97438.56;106805;1277;23968;-75
2023/06/30 09:38:15;;;;;;;10.20;3.10;;;;;;;25.86;44.56;97437.66;107112;1276;22532;-75
2023/06/30 09:40:43;;;;;;;10.00;3.10;;;;;;;25.84;44.38;97439.58;106781;1277;22531;-75
2023/06/30 09:43:18;;;;;;;4.40;2.50;;;;;;;25.87;44.43;97439.95;106886;1277;22744;-75
2023/06/30 09:46:06;;;;;;;5.40;2.90;;;;;;;25.87;44.33;97434.27;106857;1276;22567;-74
2023/06/30 09:48:38;;;;;;;5.30;3.00;;;;;;;25.88;44.25;97431.58;106910;1277;22614;-74
2023/06/30 09:51:07;;;;;;;4.80;2.70;;;;;;;25.97;44.79;97428.23;106797;1277;22538;-75
2023/06/30 09:53:38;;;;;;;7.90;2.60;;;;;;;26.08;43.63;97428.10;106836;1277;24243;-74
2023/06/30 09:56:06;;;;;;;6.90;3.00;;;;;;;26.10;43.58;97429.90;106798;1277;25357;-75
2023/06/30 09:58:33;;;;;;;6.00;2.80;;;;;;;26.03;43.46;97428.80;106757;1277;22645;-75
2023/06/30 10:01:00;;;;;;;7.20;3.00;;;;;;;25.98;43.73;97426.98;106741;1277;22642;-75
2023/06/30 10:03:27;;;;;;;8.40;3.50;;;;;;;25.98;43.48;97421.69;106795;1277;22541;-74
2023/06/30 10:05:54;;;;;;;4.50;2.80;;;;;;;25.97;44.41;97414.91;106850;1277;26725;-75
2023/06/30 10:08:22;;;;;;;4.30;2.80;;;;;;;26.13;44.24;97413.77;106761;1277;22550;-76
2023/06/30 10:10:52;;;;;;;6.80;2.80;;;;;;;26.14;44.02;97413.13;107112;1276;22540;-75
2023/06/30 10:13:20;;;;;;;4.50;2.70;;;;;;;26.18;44.05;97415.91;106826;1254;24183;-75
2023/06/30 10:15:47;;;;;;;6.50;2.80;;;;;;;26.22;43.59;97417.76;106488;1277;22532;-75
2023/06/30 10:18:17;;;;;;;5.50;2.60;;;;;;;26.21;43.47;97420.05;106759;1277;24546;-74
2023/06/30 10:20:44;;;;;;;4.20;2.90;;;;;;;26.26;43.22;97417.36;106812;1277;24294;-74
2023/06/30 10:23:22;;;;;;;7.60;2.90;;;;;;;26.36;43.08;97418.36;106786;1277;22546;-74
2023/06/30 10:25:50;;;;;;;4.80;2.90;;;;;;;26.43;43.12;97417.39;106871;1276;24183;-74
2023/06/30 10:28:18;;;;;;;6.90;2.90;;;;;;;26.43;42.76;97414.71;106795;1277;23901;-75
2023/06/30 10:30:50;;;;;;;7.80;3.10;;;;;;;26.35;43.13;97413.94;106824;1277;26595;-74
2023/06/30 10:33:17;;;;;;;6.00;2.60;;;;;;;26.40;43.41;97400.70;106851;1277;22744;-74
2023/06/30 10:35:45;;;;;;;6.40;2.80;;;;;;;26.53;43.38;97396.99;106481;1278;25449;-75
2023/06/30 10:38:13;;;;;;;10.20;3.10;;;;;;;26.52;42.90;97401.27;106492;1278;24057;-75
2023/06/30 10:40:39;;;;;;;5.70;2.70;;;;;;;26.53;42.94;97394.39;106602;1277;22640;-75
2023/06/30 10:43:06;;;;;;;6.70;2.80;;;;;;;26.65;41.95;97397.52;106488;1277;22561;-74
2023/06/30 10:45:34;;;;;;;9.30;3.50;;;;;;;26.62;41.19;97404.76;106770;1276;22640;-74
2023/06/30 10:48:14;;;;;;;7.10;3.20;;;;;;;26.62;39.89;97407.75;106809;1276;25399;-75
2023/06/30 10:50:42;;;;;;;6.40;2.80;;;;;;;26.62;40.35;97410.27;106771;1277;26538;-76
2023/06/30 10:53:16;;;;;;;4.70;2.80;;;;;;;26.64;40.18;97402.20;106822;1276;22538;-75
2023/06/30 10:55:43;;;;;;;4.00;2.80;;;;;;;26.61;40.98;97401.22;106480;1277;22631;-75
2023/06/30 10:58:10;;;;;;;4.90;2.80;;;;;;;26.67;40.36;97395.27;106781;1277;25226;-74
2023/06/30 11:00:37;;;;;;;5.00;2.80;;;;;;;26.60;40.08;97399.80;106757;1276;22547;-75
2023/06/30 11:03:05;;;;;;;7.30;2.80;;;;;;;26.49;39.89;97390.48;106766;1270;22534;-75
2023/06/30 11:05:33;;;;;;;6.30;2.80;;;;;;;26.45;39.81;97388.15;106808;1277;23004;-74
2023/06/30 11:08:06;;;;;;;5.10;3.00;;;;;;;26.39;40.50;97391.31;106751;1276;24228;-74
2023/06/30 11:10:43;;;;;;;5.50;3.00;;;;;;;26.42;41.15;97391.98;107104;1277;25291;-74
2023/06/30 11:13:10;;;;;;;6.20;2.90;;;;;;;26.40;41.04;97396.45;106723;1277;25309;-75
2023/06/30 11:15:38;;;;;;;6.50;2.80;;;;;;;26.41;41.21;97391.21;106719;1276;22533;-75
2023/06/30 11:18:13;;;;;;;7.20;2.90;;;;;;;26.51;41.01;97392.52;107086;1277;22538;-76
2023/06/30 11:21:03;;;;;;;8.40;3.00;;;;;;;26.54;40.12;97399.18;106511;1277;22662;-74
2023/06/30 11:23:38;;;;;;;5.80;2.80;;;;;;;26.45;39.95;97393.61;106799;1277;22546;-75
2023/06/30 11:26:16;;;;;;;5.80;2.70;;;;;;;26.45;40.05;97390.67;106838;1276;22531;-75
2023/06/30 11:28:48;;;;;;;7.20;2.80;;;;;;;26.51;40.52;97391.33;106497;1277;22530;-75